Skip to main content.
^^
Station Historical Data
 
Daily Summary for December 14, 2017 Units:  Metric    English   Both
« Previous Day
Next Day »
Daily Weekly Monthly Yearly Custom
  Current: High: Low: Average:
Temperature: 1.5 °C 5.7 °C 1.5 °C 3.4 °C
Dew Point: 0.5 °C 3.0 °C 0.5 °C 1.5 °C
Humidity: 93% 93% 83% 88%
Wind Speed: 1.6km/h 14.5km/h 0.0km/h 6.1km/h
Wind Gust: 4.8km/h 29.0km/h - -
WindSSW - - SW
Pressure: 988.7 hPa 994.5 hPa 988.7 hPa -
Precipitation: 0.0 mm      
Historical Graphs
 
 
Tabular Data for December 14, 2017
Time Temperature Dew Point Pressure Wind Wind Speed Wind Gust Humidity Rainfall Rate (Hourly) Conditions
00:00 2.6 °C 0.7 °C 993.5 hPa WSW 11.3 km/h 20.9 km/h 87% 0.0 mm RA
00:10 2.5 °C 0.6 °C 993.5 hPa West 9.7 km/h 22.5 km/h 87% 0.0 mm SCT
00:20 2.6 °C 0.6 °C 993.5 hPa WSW 9.7 km/h 25.7 km/h 87% 0.0 mm SCT
00:30 2.7 °C 0.7 °C 993.5 hPa WSW 8.0 km/h 29.0 km/h 87% 0.0 mm SCT
00:40 2.7 °C 0.7 °C 993.5 hPa WSW 8.0 km/h 20.9 km/h 87% 0.0 mm SCT
00:50 2.7 °C 0.7 °C 993.5 hPa WSW 8.0 km/h 19.3 km/h 87% 0.0 mm SCT
01:00 2.7 °C 0.7 °C 993.5 hPa WSW 8.0 km/h 19.3 km/h 87% 0.0 mm SCT
01:10 2.7 °C 0.8 °C 993.8 hPa WSW 11.3 km/h 22.5 km/h 87% 0.0 mm SCT
01:30 2.9 °C 0.8 °C 994.1 hPa WSW 4.8 km/h 19.3 km/h 86% 0.0 mm SCT
01:50 2.9 °C 0.8 °C 994.1 hPa West 11.3 km/h 20.9 km/h 86% 0.0 mm SCT
02:00 3.2 °C 1.1 °C 994.1 hPa WSW 9.7 km/h 22.5 km/h 86% 0.0 mm SCT
02:10 3.3 °C 1.2 °C 994.5 hPa WSW 9.7 km/h 29.0 km/h 86% 0.0 mm SCT
02:30 3.5 °C 1.4 °C 994.1 hPa WSW 14.5 km/h 24.1 km/h 86% 0.0 mm SCT
02:40 3.7 °C 1.4 °C 994.1 hPa West 11.3 km/h 20.9 km/h 85% 0.0 mm SCT
02:50 4.0 °C 1.5 °C 994.1 hPa WSW 11.3 km/h 25.7 km/h 84% 0.0 mm SCT
03:10 3.9 °C 1.7 °C 994.1 hPa SW 8.0 km/h 19.3 km/h 85% 0.0 mm SCT
03:30 3.7 °C 1.7 °C 994.1 hPa SW 4.8 km/h 16.1 km/h 87% 0.0 mm SCT
03:40 3.8 °C 2.0 °C 994.1 hPa SW 12.9 km/h 24.1 km/h 88% 0.0 mm SCT
03:50 3.8 °C 1.8 °C 993.8 hPa SW 8.0 km/h 20.9 km/h 87% 0.0 mm SCT
04:00 3.9 °C 1.9 °C 993.8 hPa SW 11.3 km/h 19.3 km/h 87% 0.0 mm SCT
04:10 3.9 °C 2.0 °C 993.8 hPa SW 11.3 km/h 20.9 km/h 87% 0.0 mm SCT
04:20 3.9 °C 1.8 °C 993.8 hPa SW 11.3 km/h 20.9 km/h 86% 0.0 mm SCT
04:30 3.9 °C 1.8 °C 994.1 hPa SW 8.0 km/h 20.9 km/h 86% 0.0 mm SCT
04:40 3.8 °C 1.9 °C 994.1 hPa SW 8.0 km/h 24.1 km/h 87% 0.0 mm SCT
04:50 3.7 °C 1.7 °C 993.8 hPa SW 4.8 km/h 24.1 km/h 87% 0.0 mm SCT
05:00 3.6 °C 1.6 °C 993.8 hPa WSW 4.8 km/h 19.3 km/h 87% 0.0 mm SCT
05:10 3.6 °C 1.7 °C 993.8 hPa WSW 8.0 km/h 20.9 km/h 87% 0.0 mm SCT
05:20 3.6 °C 1.7 °C 993.8 hPa SW 9.7 km/h 24.1 km/h 87% 0.0 mm SCT
05:30 3.5 °C 1.7 °C 993.8 hPa WSW 4.8 km/h 20.9 km/h 88% 0.0 mm SCT
05:40 3.3 °C 1.6 °C 993.8 hPa SW 3.2 km/h 19.3 km/h 88% 0.0 mm SCT
05:50 3.2 °C 1.4 °C 993.5 hPa SW 8.0 km/h 16.1 km/h 88% 0.0 mm SCT
06:00 3.3 °C 1.5 °C 993.5 hPa SW 4.8 km/h 19.3 km/h 88% 0.0 mm SCT
06:20 3.2 °C 1.4 °C 993.5 hPa SW 4.8 km/h 20.9 km/h 88% 0.0 mm SCT
06:30 3.1 °C 1.3 °C 993.1 hPa SW 4.8 km/h 19.3 km/h 88% 0.0 mm SCT
06:40 2.9 °C 1.3 °C 993.1 hPa SSW 4.8 km/h 16.1 km/h 89% 0.0 mm SCT
06:50 3.1 °C 1.4 °C 993.1 hPa SW 9.7 km/h 19.3 km/h 89% 0.0 mm SCT
07:00 3.1 °C 1.4 °C 993.1 hPa SW 8.0 km/h 20.9 km/h 89% 0.0 mm SCT
07:10 3.1 °C 1.3 °C 993.1 hPa SW 11.3 km/h 20.9 km/h 88% 0.0 mm CLR
07:20 3.1 °C 1.5 °C 993.1 hPa SW 8.0 km/h 19.3 km/h 89% 0.0 mm CLR
07:50 3.3 °C 1.7 °C 993.1 hPa WSW 9.7 km/h 24.1 km/h 89% 0.0 mm CLR
08:00 3.3 °C 1.5 °C 993.1 hPa SW 8.0 km/h 25.7 km/h 88% 0.0 mm OVC
08:30 3.1 °C 1.3 °C 992.8 hPa SW 4.8 km/h 19.3 km/h 88% 0.0 mm -RA
08:40 3.1 °C 1.3 °C 993.1 hPa SW 9.7 km/h 14.5 km/h 88% 0.0 mm -RA
08:50 3.1 °C 1.3 °C 993.1 hPa SW 4.8 km/h 14.5 km/h 88% 0.0 mm -RA
09:00 2.9 °C 1.3 °C 993.1 hPa SW 4.8 km/h 14.5 km/h 89% 0.0 mm -RA
09:10 3.1 °C 1.4 °C 993.1 hPa SW 3.2 km/h 14.5 km/h 89% 0.0 mm FEW
09:30 3.2 °C 1.7 °C 993.1 hPa SW 4.8 km/h 14.5 km/h 90% 0.0 mm FEW
09:40 3.2 °C 1.6 °C 993.1 hPa SW 9.7 km/h 19.3 km/h 89% 0.0 mm FEW
09:50 3.3 °C 1.7 °C 993.1 hPa SW 11.3 km/h 22.5 km/h 89% 0.0 mm FEW
10:00 3.3 °C 1.7 °C 993.1 hPa SW 11.3 km/h 20.9 km/h 89% 0.0 mm FEW
10:10 3.4 °C 1.8 °C 992.8 hPa SW 8.0 km/h 14.5 km/h 89% 0.0 mm SCT
10:20 3.6 °C 1.8 °C 992.8 hPa SW 1.6 km/h 12.9 km/h 88% 0.0 mm SCT
10:30 3.7 °C 1.9 °C 992.8 hPa SW 4.8 km/h 12.9 km/h 88% 0.0 mm SCT
10:40 4.0 °C 2.2 °C 992.8 hPa SW 4.8 km/h 19.3 km/h 88% 0.0 mm SCT
10:50 4.4 °C 2.4 °C 992.8 hPa WSW 4.8 km/h 22.5 km/h 87% 0.0 mm SCT
11:00 4.7 °C 2.5 °C 992.4 hPa SW 3.2 km/h 19.3 km/h 86% 0.0 mm SCT
11:10 4.7 °C 2.6 °C 992.4 hPa SW 4.8 km/h 20.9 km/h 86% 0.0 mm FEW
11:20 4.7 °C 2.6 °C 992.4 hPa SW 4.8 km/h 14.5 km/h 86% 0.0 mm FEW
11:30 4.7 °C 2.4 °C 992.1 hPa WSW 8.0 km/h 20.9 km/h 85% 0.0 mm FEW
11:40 4.7 °C 2.2 °C 992.1 hPa WSW 9.7 km/h 20.9 km/h 84% 0.0 mm FEW
11:50 4.8 °C 2.4 °C 991.8 hPa SW 4.8 km/h 20.9 km/h 85% 0.0 mm FEW
12:00 4.8 °C 2.4 °C 991.8 hPa SW 9.7 km/h 20.9 km/h 85% 0.0 mm FEW
12:10 4.7 °C 2.3 °C 991.8 hPa SW 8.0 km/h 14.5 km/h 85% 0.0 mm FEW
12:20 4.7 °C 2.2 °C 991.4 hPa SW 8.0 km/h 14.5 km/h 84% 0.0 mm FEW
12:30 4.9 °C 2.4 °C 991.4 hPa SW 4.8 km/h 20.9 km/h 84% 0.0 mm FEW
12:40 5.3 °C 2.8 °C 991.1 hPa SW 8.0 km/h 16.1 km/h 84% 0.0 mm FEW
12:50 5.6 °C 2.9 °C 991.1 hPa SW 4.8 km/h 16.1 km/h 83% 0.0 mm FEW
13:00 5.7 °C 3.0 °C 991.1 hPa SW 8.0 km/h 20.9 km/h 83% 0.0 mm FEW
13:10 5.3 °C 2.7 °C 990.7 hPa WSW 9.7 km/h 22.5 km/h 83% 0.0 mm FEW
13:20 5.1 °C 2.4 °C 990.7 hPa WSW 9.7 km/h 20.9 km/h 83% 0.0 mm FEW
13:30 4.9 °C 2.2 °C 990.7 hPa WSW 9.7 km/h 19.3 km/h 83% 0.0 mm FEW
13:40 4.7 °C 2.1 °C 990.7 hPa SW 3.2 km/h 20.9 km/h 83% 0.0 mm FEW
13:50 4.7 °C 2.5 °C 990.4 hPa SW 3.2 km/h 12.9 km/h 86% 0.0 mm FEW
14:00 4.7 °C 2.6 °C 990.4 hPa SSW 9.7 km/h 19.3 km/h 86% 0.0 mm FEW
14:10 4.6 °C 2.4 °C 990.4 hPa SW 4.8 km/h 12.9 km/h 86% 0.0 mm SCT
14:20 4.5 °C 2.4 °C 990.1 hPa SSW 4.8 km/h 12.9 km/h 86% 0.0 mm SCT
14:30 4.4 °C 2.3 °C 990.1 hPa SW 4.8 km/h 14.5 km/h 86% 0.0 mm SCT
14:40 4.3 °C 2.2 °C 990.1 hPa SW 8.0 km/h 14.5 km/h 86% 0.0 mm SCT
14:50 4.2 °C 2.1 °C 989.7 hPa SW 3.2 km/h 19.3 km/h 86% 0.0 mm SCT
15:00 4.1 °C 2.2 °C 989.7 hPa SW 4.8 km/h 19.3 km/h 87% 0.0 mm SCT
15:10 4.0 °C 2.1 °C 989.7 hPa SW 3.2 km/h 14.5 km/h 87% 0.0 mm FEW
15:20 3.8 °C 1.9 °C 989.4 hPa WSW 4.8 km/h 9.7 km/h 87% 0.0 mm FEW
15:30 3.6 °C 1.8 °C 989.7 hPa SW 1.6 km/h 8.0 km/h 88% 0.0 mm FEW
15:40 3.4 °C 1.6 °C 989.7 hPa SSW 3.2 km/h 4.8 km/h 88% 0.0 mm FEW
15:50 3.2 °C 1.6 °C 989.4 hPa SW 1.6 km/h 8.0 km/h 89% 0.0 mm FEW
16:10 3.1 °C 1.4 °C 989.4 hPa WSW 3.2 km/h 11.3 km/h 89% 0.0 mm CLR
16:20 3.0 °C 1.4 °C 989.1 hPa SW 3.2 km/h 8.0 km/h 89% 0.0 mm CLR
16:30 2.9 °C 1.3 °C 989.1 hPa SW 4.8 km/h 8.0 km/h 89% 0.0 mm CLR
16:40 2.8 °C 1.2 °C 989.1 hPa SW 1.6 km/h 8.0 km/h 89% 0.0 mm CLR
16:50 2.7 °C 1.1 °C 989.1 hPa SW 3.2 km/h 8.0 km/h 89% 0.0 mm CLR
17:00 2.6 °C 0.9 °C 989.1 hPa SW 1.6 km/h 4.8 km/h 89% 0.0 mm CLR
17:10 2.3 °C 0.8 °C 989.1 hPa SW 3.2 km/h 9.7 km/h 90% 0.0 mm CLR
17:20 2.3 °C 0.8 °C 989.1 hPa SW 3.2 km/h 9.7 km/h 90% 0.0 mm CLR
17:40 2.2 °C 0.8 °C 988.7 hPa SW 1.6 km/h 8.0 km/h 91% 0.0 mm CLR
17:50 2.1 °C 0.8 °C 988.7 hPa SSW 1.6 km/h 4.8 km/h 91% 0.0 mm CLR
18:00 2.1 °C 0.7 °C 988.7 hPa SW 4.8 km/h 8.0 km/h 91% 0.0 mm CLR
18:10 2.0 °C 0.7 °C 988.7 hPa SW 3.2 km/h 9.7 km/h 91% 0.0 mm CLR
18:20 2.1 °C 0.7 °C 988.7 hPa SW 3.2 km/h 4.8 km/h 91% 0.0 mm CLR
18:30 2.0 °C 0.7 °C 988.7 hPa SSW 3.2 km/h 4.8 km/h 91% 0.0 mm CLR
18:40 2.0 °C 0.7 °C 988.7 hPa SW 3.2 km/h 8.0 km/h 91% 0.0 mm CLR
18:50 2.0 °C 0.7 °C 988.7 hPa SW 3.2 km/h 11.3 km/h 91% 0.0 mm CLR
19:00 2.1 °C 0.9 °C 988.7 hPa SW 4.8 km/h 8.0 km/h 92% 0.0 mm CLR
19:10 2.2 °C 0.8 °C 988.7 hPa SW 4.8 km/h 19.3 km/h 91% 0.0 mm CLR
19:30 2.3 °C 1.0 °C 989.1 hPa SW 1.6 km/h 8.0 km/h 91% 0.0 mm CLR
19:40 2.2 °C 0.8 °C 989.1 hPa Calm   4.8 km/h 91% 0.0 mm CLR
19:50 2.1 °C 0.7 °C 989.1 hPa WSW 1.6 km/h 4.8 km/h 91% 0.0 mm CLR
20:00 1.9 °C 0.8 °C 989.1 hPa SW 1.6 km/h 4.8 km/h 92% 0.0 mm CLR
20:10 1.8 °C 0.7 °C 988.7 hPa SW 1.6 km/h 4.8 km/h 92% 0.0 mm CLR
20:20 1.8 °C 0.6 °C 988.7 hPa SW 1.6 km/h 3.2 km/h 92% 0.0 mm CLR
20:30 1.7 °C 0.5 °C 988.7 hPa SW 1.6 km/h 3.2 km/h 92% 0.0 mm CLR
20:40 1.5 °C 0.5 °C 988.7 hPa SSW 1.6 km/h 4.8 km/h 93% 0.0 mm CLR
Sandhurst Weather
Compliments of Weather Underground - 1.5 mb

Contact Us | Back to Top
Powered by Weather Display v10.37S build 59

Never base important decisions on this or any weather information obtained from the Internet.
Weather data on this site is not quality controlled and continuity of service is not guaranteed.


xhtml  css